Time;durP1;ratioP1;P1;durP2;ratioP2;P2;SDS_P1;SDS_P2;PMS_P1;PMS_P2;Temp;Humidity;BMP_temperature;BMP_pressure;BME280_temperature;BME280_humidity;BME280_pressure;Samples;Min_cycle;Max_cycle;Signal;HPM_P1;HPM_P2
2024/01/09 00:02:13;;;;;;;;;;;;;;;-6.00;100.00;97166.50;5083429;28;20096;-75
2024/01/09 00:04:39;;;;;;;;;;;;;;;-6.01;100.00;97169.16;5084231;28;19978;-75
2024/01/09 00:07:05;;;;;;;;;;;;;;;-6.02;100.00;97170.06;5083764;28;20233;-76
2024/01/09 00:09:33;;;;;;;;;;;;;;;-6.02;100.00;97180.28;5083498;28;19967;-75
2024/01/09 00:11:59;;;;;;;;;;;;;;;-6.05;100.00;97183.84;5083628;28;19944;-75
2024/01/09 00:14:25;;;;;;;;;;;;;;;-6.02;100.00;97173.44;5083697;28;19928;-75
2024/01/09 00:16:51;;;;;;;;;;;;;;;-6.07;100.00;97169.53;5083679;28;19944;-70
2024/01/09 00:19:17;;;;;;;;;;;;;;;-6.09;100.00;97176.47;5083668;28;19934;-85
2024/01/09 00:21:46;;;;;;;;;;;;;;;-6.10;100.00;97173.09;5083378;28;19945;-87
2024/01/09 00:24:12;;;;;;;;;;;;;;;-6.15;100.00;97168.28;5083722;28;19956;-90
2024/01/09 00:26:41;;;;;;;;;;;;;;;-6.15;100.00;97168.28;5083627;28;19947;-91
2024/01/09 00:29:07;;;;;;;;;;;;;;;-6.11;100.00;97179.09;5084970;28;20232;-93
2024/01/09 00:31:33;;;;;;;;;;;;;;;-6.12;100.00;97167.28;5084361;28;19944;-92
2024/01/09 00:33:59;;;;;;;;;;;;;;;-6.16;100.00;97174.28;5084850;28;19940;-87
2024/01/09 00:36:25;;;;;;;;;;;;;;;-6.16;100.00;97170.94;5083629;28;20026;-73
2024/01/09 00:38:51;;;;;;;;;;;;;;;-6.17;100.00;97172.66;5083467;28;19960;-74
2024/01/09 00:41:16;;;;;;;;;;;;;;;-6.18;100.00;97175.31;5083393;28;19962;-74
2024/01/09 00:43:43;;;;;;;;;;;;;;;-6.21;100.00;97155.91;5083846;28;19966;-75
2024/01/09 00:46:09;;;;;;;;;;;;;;;-6.23;100.00;97174.78;5083380;28;20121;-74
2024/01/09 00:48:34;;;;;;;;;;;;;;;-6.25;100.00;97172.31;5083280;28;19935;-74
2024/01/09 00:51:00;;;;;;;;;;;;;;;-6.25;100.00;97167.22;5083877;28;19936;-74
2024/01/09 00:53:26;;;;;;;;;;;;;;;-6.26;100.00;97180.88;5083309;28;20137;-69
2024/01/09 00:55:52;;;;;;;;;;;;;;;-6.27;100.00;97176.72;5082190;28;19945;-70
2024/01/09 00:58:18;;;;;;;;;;;;;;;-6.26;100.00;97172.41;5082255;28;19933;-74
2024/01/09 01:00:44;;;;;;;;;;;;;;;-6.30;100.00;97181.16;5083195;28;20246;-75
2024/01/09 01:03:10;;;;;;;;;;;;;;;-6.34;100.00;97183.94;5082116;28;19959;-74
2024/01/09 01:05:35;;;;;;;;;;;;;;;-6.34;100.00;97186.47;5083255;28;19936;-75
2024/01/09 01:08:01;;;;;;;;;;;;;;;-6.38;100.00;97179.94;5086181;28;19955;-74
2024/01/09 01:10:27;;;;;;;;;;;;;;;-6.38;100.00;97177.38;5086649;28;19963;-75
2024/01/09 01:12:53;;;;;;;;;;;;;;;-6.43;100.00;97176.00;5087524;28;20004;-74
2024/01/09 01:15:19;;;;;;;;;;;;;;;-6.49;100.00;97181.47;5086899;28;20007;-75
2024/01/09 01:17:45;;;;;;;;;;;;;;;-6.53;100.00;97191.06;5086604;28;19950;-76
2024/01/09 01:20:11;;;;;;;;;;;;;;;-6.55;100.00;97183.50;5086622;28;20219;-74
2024/01/09 01:22:37;;;;;;;;;;;;;;;-6.59;100.00;97186.34;5086427;28;19939;-75
2024/01/09 01:25:03;;;;;;;;;;;;;;;-6.64;100.00;97194.25;5086586;28;19938;-74
2024/01/09 01:27:29;;;;;;;;;;;;;;;-6.69;100.00;97187.81;5086449;28;19929;-75
2024/01/09 01:29:55;;;;;;;;;;;;;;;-6.75;100.00;97194.91;5086456;28;19958;-74
2024/01/09 01:32:21;;;;;;;;;;;;;;;-6.76;100.00;97207.75;5087039;28;20232;-74
2024/01/09 01:34:46;;;;;;;;;;;;;;;-6.79;100.00;97195.19;5086294;28;19942;-74
2024/01/09 01:37:13;;;;;;;;;;;;;;;-6.84;100.00;97200.56;5086352;28;19946;-74
2024/01/09 01:39:38;;;;;;;;;;;;;;;-6.84;100.00;97200.56;5086870;28;19955;-73
2024/01/09 01:42:04;;;;;;;;;;;;;;;-6.79;100.00;97202.84;5085098;28;19948;-74
2024/01/09 01:44:30;;;;;;;;;;;;;;;-6.75;100.00;97204.28;5086619;28;20035;-76
2024/01/09 01:46:56;;;;;;;;;;;;;;;-6.76;100.00;97198.38;5086155;28;19934;-74
2024/01/09 01:49:22;;;;;;;;;;;;;;;-6.78;100.00;97202.75;5086898;28;19930;-72
2024/01/09 01:51:49;;;;;;;;;;;;;;;-6.79;100.00;97198.53;5086358;28;19939;-92
2024/01/09 01:54:15;;;;;;;;;;;;;;;-6.79;100.00;97211.28;5085990;28;19934;-90
2024/01/09 01:56:42;;;;;;;;;;;;;;;-6.77;100.00;97198.47;5089405;28;19942;-90
2024/01/09 01:59:13;;;;;;;;;;;;;;;-6.82;100.00;97203.03;5087679;28;20136;-86
2024/01/09 02:01:39;;;;;;;;;;;;;;;-6.87;100.00;97203.28;5086830;28;20113;-89
2024/01/09 02:04:07;;;;;;;;;;;;;;;-6.86;100.00;97201.56;5085625;28;19964;-87
2024/01/09 02:06:33;;;;;;;;;;;;;;;-6.88;100.00;97201.66;5086084;28;19937;-71
2024/01/09 02:08:59;;;;;;;;;;;;;;;-6.86;100.00;97202.38;5085442;28;19954;-74
2024/01/09 02:11:25;;;;;;;;;;;;;;;-6.84;100.00;97203.13;5086230;28;19946;-76
2024/01/09 02:13:51;;;;;;;;;;;;;;;-6.85;100.00;97193.81;5085606;28;19944;-75
2024/01/09 02:16:17;;;;;;;;;;;;;;;-6.89;100.00;97191.53;5085543;28;19944;-75
2024/01/09 02:18:43;;;;;;;;;;;;;;;-6.91;100.00;97191.63;5085352;28;19933;-74
2024/01/09 02:21:08;;;;;;;;;;;;;;;-6.95;100.00;97193.56;5085442;28;19946;-74
2024/01/09 02:23:34;;;;;;;;;;;;;;;-6.96;100.00;97196.19;5085841;28;19956;-74
2024/01/09 02:26:01;;;;;;;;;;;;;;;-6.98;100.00;97198.81;5085930;28;20233;-83
2024/01/09 02:28:29;;;;;;;;;;;;;;;-6.98;100.00;97201.38;5086102;28;19937;-69
2024/01/09 02:30:56;;;;;;;;;;;;;;;-7.00;100.00;97195.53;5085762;28;19940;-69
2024/01/09 02:33:23;;;;;;;;;;;;;;;-7.05;100.00;97192.44;5085272;28;19940;-69
2024/01/09 02:35:49;;;;;;;;;;;;;;;-7.05;100.00;97192.44;5085087;28;19955;-70
2024/01/09 02:38:15;;;;;;;;;;;;;;;-7.04;100.00;97194.06;5085894;28;19940;-70
2024/01/09 02:40:41;;;;;;;;;;;;;;;-7.05;100.00;97194.19;5085048;28;19931;-70
2024/01/09 02:43:07;;;;;;;;;;;;;;;-7.11;100.00;97189.44;5084935;28;19958;-75
2024/01/09 02:45:33;;;;;;;;;;;;;;;-7.15;100.00;97191.34;5084955;28;19933;-85
2024/01/09 02:47:59;;;;;;;;;;;;;;;-7.16;100.00;97176.94;5084961;28;19940;-73
2024/01/09 02:50:25;;;;;;;;;;;;;;;-7.20;100.00;97180.59;5084846;28;19986;-73
2024/01/09 02:52:51;;;;;;;;;;;;;;;-7.23;100.00;97179.03;5084754;28;19932;-73
2024/01/09 02:55:17;;;;;;;;;;;;;;;-7.23;100.00;97184.13;5084765;28;19938;-73
2024/01/09 02:57:42;;;;;;;;;;;;;;;-7.23;100.00;97180.78;5085203;28;19941;-73
2024/01/09 03:00:09;;;;;;;;;;;;;;;-7.26;100.00;97176.69;5085214;28;20207;-73
2024/01/09 03:02:35;;;;;;;;;;;;;;;-7.29;100.00;97184.50;5084582;28;19962;-76
2024/01/09 03:05:02;;;;;;;;;;;;;;;-7.33;100.00;97184.75;5084535;28;20248;-90
2024/01/09 03:07:28;;;;;;;;;;;;;;;-7.39;100.00;97179.13;5083882;28;19956;-84
2024/01/09 03:09:54;;;;;;;;;;;;;;;-7.41;100.00;97178.41;5084357;28;19997;-88
2024/01/09 03:12:20;;;;;;;;;;;;;;;-7.44;100.00;97168.38;5084500;28;19941;-85
2024/01/09 03:14:46;;;;;;;;;;;;;;;-7.45;100.00;97181.22;5084476;28;20228;-85
2024/01/09 03:17:12;;;;;;;;;;;;;;;-7.50;100.00;97181.44;5084466;28;19947;-85
2024/01/09 03:19:38;;;;;;;;;;;;;;;-7.51;100.00;97173.91;5084906;28;19936;-80
2024/01/09 03:22:03;;;;;;;;;;;;;;;-7.53;100.00;97184.19;5084436;28;19942;-74
2024/01/09 03:24:29;;;;;;;;;;;;;;;-7.57;100.00;97191.19;5084202;28;19964;-73
2024/01/09 03:26:55;;;;;;;;;;;;;;;-7.59;100.00;97192.97;5083660;28;19938;-72
2024/01/09 03:29:21;;;;;;;;;;;;;;;-7.58;100.00;97189.56;5084529;28;19936;-73
2024/01/09 03:31:47;;;;;;;;;;;;;;;-7.57;100.00;97187.81;5084936;28;19974;-73
2024/01/09 03:34:13;;;;;;;;;;;;;;;-7.58;100.00;97181.06;5084166;28;20112;-73
2024/01/09 03:36:38;;;;;;;;;;;;;;;-7.59;100.00;97184.53;5084075;28;19934;-73
2024/01/09 03:39:05;;;;;;;;;;;;;;;-7.63;100.00;97177.97;5084083;28;19947;-73
2024/01/09 03:41:31;;;;;;;;;;;;;;;-7.63;100.00;97196.63;5084101;28;20133;-71
2024/01/09 03:43:57;;;;;;;;;;;;;;;-7.64;100.00;97184.81;5083948;28;20278;-75
2024/01/09 03:46:23;;;;;;;;;;;;;;;-7.62;100.00;97187.25;5083965;28;19936;-75
2024/01/09 03:48:49;;;;;;;;;;;;;;;-7.64;100.00;97192.44;5083960;28;20231;-75
2024/01/09 03:51:15;;;;;;;;;;;;;;;-7.65;100.00;97188.25;5083986;28;19941;-75
2024/01/09 03:53:41;;;;;;;;;;;;;;;-7.66;100.00;97186.63;5084709;28;20088;-75
2024/01/09 03:56:06;;;;;;;;;;;;;;;-7.66;100.00;97189.16;5083892;28;19943;-75
2024/01/09 03:58:32;;;;;;;;;;;;;;;-7.68;100.00;97183.34;5083898;28;19988;-73
2024/01/09 04:00:58;;;;;;;;;;;;;;;-7.70;100.00;97184.34;5083878;28;20027;-74
2024/01/09 04:03:24;;;;;;;;;;;;;;;-7.69;100.00;97185.97;5083765;28;19961;-74
2024/01/09 04:05:50;;;;;;;;;;;;;;;-7.69;100.00;97184.22;5083754;28;19944;-74
2024/01/09 04:08:16;;;;;;;;;;;;;;;-7.69;100.00;97184.22;5084257;28;19955;-74
2024/01/09 04:10:42;;;;;;;;;;;;;;;-7.70;100.00;97182.59;5083615;28;19968;-74
2024/01/09 04:13:07;;;;;;;;;;;;;;;-7.71;100.00;97177.59;5083711;28;19949;-75
2024/01/09 04:15:34;;;;;;;;;;;;;;;-7.68;100.00;97170.59;5083714;28;19935;-83
2024/01/09 04:18:01;;;;;;;;;;;;;;;-7.62;100.00;97172.81;5084257;28;20113;-71
2024/01/09 04:20:27;;;;;;;;;;;;;;;-7.61;100.00;97166.78;5082575;28;19935;-75
2024/01/09 04:22:52;;;;;;;;;;;;;;;-7.61;100.00;97173.59;5084137;28;19950;-75
2024/01/09 04:25:18;;;;;;;;;;;;;;;-7.62;100.00;97171.97;5083590;28;19935;-74
2024/01/09 04:27:44;;;;;;;;;;;;;;;-7.64;100.00;97178.88;5084044;28;19976;-74
2024/01/09 04:30:11;;;;;;;;;;;;;;;-7.65;100.00;97169.59;5083586;28;20128;-75
2024/01/09 04:32:36;;;;;;;;;;;;;;;-7.67;100.00;97172.22;5082383;28;19944;-75
2024/01/09 04:35:03;;;;;;;;;;;;;;;-7.68;100.00;97177.44;5083533;28;19943;-82
2024/01/09 04:37:29;;;;;;;;;;;;;;;-7.68;100.00;97174.88;5083590;28;19937;-74
2024/01/09 04:39:54;;;;;;;;;;;;;;;-7.70;100.00;97172.41;5083459;28;20243;-74
2024/01/09 04:42:20;;;;;;;;;;;;;;;-7.70;100.00;97172.41;5086075;28;19966;-74
2024/01/09 04:44:46;;;;;;;;;;;;;;;-7.70;100.00;97176.69;5087221;28;20116;-74
2024/01/09 04:47:15;;;;;;;;;;;;;;;-7.72;100.00;97176.78;5087256;28;20105;-74
2024/01/09 04:49:44;;;;;;;;;;;;;;;-7.74;100.00;97167.59;5088012;28;19936;-74
2024/01/09 04:52:10;;;;;;;;;;;;;;;-7.73;100.00;97169.22;5087708;28;19938;-76
2024/01/09 04:54:36;;;;;;;;;;;;;;;-7.79;100.00;97172.91;5087942;28;20108;-69
2024/01/09 04:57:02;;;;;;;;;;;;;;;-7.80;100.00;97172.09;5087081;28;19942;-72
2024/01/09 04:59:28;;;;;;;;;;;;;;;-7.80;100.00;97168.75;5087523;28;19937;-73
2024/01/09 05:01:54;;;;;;;;;;;;;;;-7.80;100.00;97174.63;5085796;28;19997;-73
2024/01/09 05:04:20;;;;;;;;;;;;;;;-7.77;100.00;97173.66;5065757;28;19973;-73
2024/01/09 05:06:46;;;;;;;;;;;;;;;-7.76;100.00;97176.13;5065130;28;20281;-72
2024/01/09 05:09:11;;;;;;;;;;;;;;;-7.76;100.00;97171.03;5065035;28;19976;-72
2024/01/09 05:11:37;;;;;;;;;;;;;;;-7.77;100.00;97173.66;5065148;28;19986;-72
2024/01/09 05:14:03;;;;;;;;;;;;;;;-7.80;100.00;97169.56;5065224;28;19943;-83
2024/01/09 05:16:29;;;;;;;;;;;;;;;-7.83;100.00;97173.97;5065040;28;19978;-83
2024/01/09 05:18:55;;;;;;;;;;;;;;;-7.83;100.00;97174.84;5065395;28;19934;-83
2024/01/09 05:21:21;;;;;;;;;;;;;;;-7.86;100.00;97169.91;5048875;28;19951;-83
2024/01/09 05:23:47;;;;;;;;;;;;;;;-7.88;100.00;97179.34;5064764;28;20293;-85
2024/01/09 05:26:13;;;;;;;;;;;;;;;-7.87;100.00;97178.44;5064888;28;19937;-84
2024/01/09 05:28:39;;;;;;;;;;;;;;;-7.88;100.00;97179.34;5064718;28;19935;-84
2024/01/09 05:31:04;;;;;;;;;;;;;;;-7.89;100.00;97185.34;5064911;28;19942;-73
2024/01/09 05:33:31;;;;;;;;;;;;;;;-7.90;100.00;97185.44;5065216;28;19937;-69
2024/01/09 05:35:58;;;;;;;;;;;;;;;-7.91;100.00;97188.91;5081339;28;19946;-69
2024/01/09 05:38:23;;;;;;;;;;;;;;;-7.88;100.00;97183.63;5086313;28;19934;-70
2024/01/09 05:40:51;;;;;;;;;;;;;;;-7.84;100.00;97193.53;5086260;28;19933;-70
2024/01/09 05:43:17;;;;;;;;;;;;;;;-7.79;100.00;97188.19;5087041;28;19940;-69
2024/01/09 05:45:43;;;;;;;;;;;;;;;-7.78;100.00;97187.28;5086104;28;19968;-70
2024/01/09 05:48:09;;;;;;;;;;;;;;;-7.77;100.00;97188.91;5086136;28;19934;-71
2024/01/09 05:50:34;;;;;;;;;;;;;;;-7.78;100.00;97184.75;5086125;28;19939;-82
2024/01/09 05:53:02;;;;;;;;;;;;;;;-7.80;100.00;97184.00;5085432;28;19953;-82
2024/01/09 05:55:27;;;;;;;;;;;;;;;-7.80;100.00;97201.84;5086068;28;19966;-84
2024/01/09 05:57:53;;;;;;;;;;;;;;;-7.75;100.00;97192.19;5086013;28;19933;-82
2024/01/09 06:00:20;;;;;;;;;;;;;;;-7.72;100.00;97194.59;5084972;28;19948;-89
2024/01/09 06:02:45;;;;;;;;;;;;;;;-7.70;100.00;97192.78;5086449;28;20212;-82
2024/01/09 06:05:11;;;;;;;;;;;;;;;-7.68;100.00;97188.44;5084603;28;20002;-82
2024/01/09 06:07:37;;;;;;;;;;;;;;;-7.65;100.00;97193.34;5085723;28;19942;-74
2024/01/09 06:10:03;;;;;;;;;;;;;;;-7.67;100.00;97191.78;5085459;28;20219;-73
2024/01/09 06:12:29;;;;;;;;;;;;;;;-7.68;100.00;97197.81;5067862;28;19987;-74
2024/01/09 06:14:55;;;;;;;;;;;;;;;-7.65;100.00;97198.44;5085599;28;19943;-74
2024/01/09 06:17:22;;;;;;;;;;;;;;;-7.64;100.00;97201.78;5085599;28;19942;-74
2024/01/09 06:19:48;;;;;;;;;;;;;;;-7.59;100.00;97203.19;5085493;28;20040;-75
2024/01/09 06:22:14;;;;;;;;;;;;;;;-7.54;100.00;97195.28;5086245;28;19935;-73
2024/01/09 06:24:39;;;;;;;;;;;;;;;-7.49;100.00;97195.03;5085549;28;20066;-74
2024/01/09 06:27:05;;;;;;;;;;;;;;;-7.47;100.00;97193.22;5084936;28;19996;-74
2024/01/09 06:29:31;;;;;;;;;;;;;;;-7.45;100.00;97199.84;5085370;28;19930;-70
2024/01/09 06:31:57;;;;;;;;;;;;;;;-7.42;100.00;97194.56;5084871;28;20103;-70
2024/01/09 06:34:23;;;;;;;;;;;;;;;-7.43;100.00;97187.00;5084835;28;19948;-70
2024/01/09 06:36:49;;;;;;;;;;;;;;;-7.46;100.00;97189.75;5068122;28;19938;-70
2024/01/09 06:39:15;;;;;;;;;;;;;;;-7.46;100.00;97185.47;5085952;28;20077;-69
2024/01/09 06:41:41;;;;;;;;;;;;;;;-7.46;100.00;97188.00;5083842;28;19976;-70
2024/01/09 06:44:07;;;;;;;;;;;;;;;-7.47;100.00;97185.56;5084957;28;19957;-73
2024/01/09 06:46:33;;;;;;;;;;;;;;;-7.47;100.00;97194.03;5085018;28;19940;-74
2024/01/09 06:48:59;;;;;;;;;;;;;;;-7.46;100.00;97187.19;5084935;28;20253;-74
2024/01/09 06:51:25;;;;;;;;;;;;;;;-7.46;100.00;97198.19;5083813;28;19938;-73
2024/01/09 06:53:51;;;;;;;;;;;;;;;-7.45;100.00;97193.94;5084793;28;20211;-74
2024/01/09 06:56:17;;;;;;;;;;;;;;;-7.45;100.00;97202.41;5084783;28;19979;-74
2024/01/09 06:58:45;;;;;;;;;;;;;;;-7.42;100.00;97201.41;5084741;28;19939;-74
2024/01/09 07:01:12;;;;;;;;;;;;;;;-7.43;100.00;97198.03;5084369;28;20200;-82
2024/01/09 07:03:38;;;;;;;;;;;;;;;-7.44;100.00;97203.22;5083900;28;19949;-80
2024/01/09 07:06:04;;;;;;;;;;;;;;;-7.42;100.00;97198.84;5084604;28;19985;-74
2024/01/09 07:08:30;;;;;;;;;;;;;;;-7.43;100.00;97204.84;5085010;28;19961;-74
2024/01/09 07:10:59;;;;;;;;;;;;;;;-7.47;100.00;97201.66;5084417;28;19967;-73
2024/01/09 07:13:25;;;;;;;;;;;;;;;-7.47;100.00;97208.50;5084555;28;19988;-72
2024/01/09 07:15:51;;;;;;;;;;;;;;;-7.48;100.00;97201.75;5084518;28;19936;-74
2024/01/09 07:18:16;;;;;;;;;;;;;;;-7.46;100.00;97213.50;5085190;28;19958;-73
2024/01/09 07:20:43;;;;;;;;;;;;;;;-7.45;100.00;97206.69;5084963;28;20148;-74
2024/01/09 07:23:09;;;;;;;;;;;;;;;-7.47;100.00;97209.31;5084350;28;19930;-75
2024/01/09 07:25:35;;;;;;;;;;;;;;;-7.45;100.00;97212.59;5084507;28;20019;-76
2024/01/09 07:28:00;;;;;;;;;;;;;;;-7.44;100.00;97213.41;5084625;28;19942;-74
2024/01/09 07:30:26;;;;;;;;;;;;;;;-7.45;100.00;97204.94;5084674;28;19936;-75
2024/01/09 07:32:52;;;;;;;;;;;;;;;-7.43;100.00;97213.31;5084313;28;19942;-74
2024/01/09 07:35:18;;;;;;;;;;;;;;;-7.43;100.00;97210.78;5084253;28;19957;-75
2024/01/09 07:37:44;;;;;;;;;;;;;;;-7.41;100.00;97210.66;5084145;28;20008;-76
2024/01/09 07:40:10;;;;;;;;;;;;;;;-7.39;100.00;97213.94;5084189;28;19939;-73
2024/01/09 07:42:36;;;;;;;;;;;;;;;-6.37;100.00;97227.50;5084385;28;19931;-71
2024/01/09 07:45:03;;;;;;;;;;;;;;;-5.87;100.00;97227.00;5084006;28;19957;-71
2024/01/09 07:47:29;;;;;;;;;;;;;;;-6.04;100.00;97217.88;5084076;28;20243;-71
2024/01/09 07:49:55;;;;;;;;;;;;;;;-6.24;100.00;97199.47;5084014;28;19942;-70
2024/01/09 07:52:21;;;;;;;;;;;;;;;-6.42;100.00;97190.41;5084773;28;19942;-70
2024/01/09 07:54:47;;;;;;;;;;;;;;;-6.57;100.00;97187.88;5084496;28;19936;-70
2024/01/09 07:57:14;;;;;;;;;;;;;;;-6.65;100.00;97194.38;5083988;28;19956;-73
2024/01/09 07:59:42;;;;;;;;;;;;;;;-6.73;100.00;97202.47;5083934;28;19941;-83
2024/01/09 08:02:07;;;;;;;;;;;;;;;-6.79;100.00;97206.19;5083929;28;19940;-82
2024/01/09 08:04:33;;;;;;;;;;;;;;;-6.82;100.00;97205.59;5083834;28;20292;-83
2024/01/09 08:06:59;;;;;;;;;;;;;;;-6.83;100.00;97212.38;5083796;28;19992;-83
2024/01/09 08:09:25;;;;;;;;;;;;;;;-6.88;100.00;97204.22;5084151;28;19972;-82
2024/01/09 08:11:51;;;;;;;;;;;;;;;-6.90;100.00;97207.75;5084364;28;19940;-83
2024/01/09 08:14:17;;;;;;;;;;;;;;;-6.94;100.00;97207.13;5084287;28;20087;-82
2024/01/09 08:16:42;;;;;;;;;;;;;;;-6.92;100.00;97214.69;5087318;28;19965;-71
2024/01/09 08:19:08;;;;;;;;;;;;;;;-6.88;100.00;97208.50;5087895;28;19937;-73
2024/01/09 08:21:35;;;;;;;;;;;;;;;-6.87;100.00;97215.22;5086847;28;20010;-72
2024/01/09 08:24:02;;;;;;;;;;;;;;;-6.81;100.00;97208.03;5087594;28;19940;-72
2024/01/09 08:26:28;;;;;;;;;;;;;;;-6.75;100.00;97210.19;5087811;28;19939;-72
2024/01/09 08:28:54;;;;;;;;;;;;;;;-6.65;100.00;97210.50;5088078;28;20007;-71
2024/01/09 08:31:20;;;;;;;;;;;;;;;-6.59;100.00;97210.13;5087621;28;20117;-71
2024/01/09 08:33:46;;;;;;;;;;;;;;;-6.53;100.00;97208.91;5087424;28;20228;-75
2024/01/09 08:36:12;;;;;;;;;;;;;;;-6.40;100.00;97204.72;5086280;28;20003;-75
2024/01/09 08:38:38;;;;;;;;;;;;;;;-6.23;100.00;97208.78;5087047;28;19989;-75
2024/01/09 08:41:05;;;;;;;;;;;;;;;-6.10;100.00;97193.53;5086377;28;19936;-75
2024/01/09 08:43:31;;;;;;;;;;;;;;;-5.99;100.00;97196.22;5087978;28;19945;-75
2024/01/09 08:45:57;;;;;;;;;;;;;;;-5.82;100.00;97199.41;5087789;28;19959;-75
2024/01/09 08:48:23;;;;;;;;;;;;;;;-5.63;100.00;97191.38;5088136;28;19956;-74
2024/01/09 08:50:49;;;;;;;;;;;;;;;-5.50;100.00;97176.94;5087241;28;19932;-75
2024/01/09 08:53:15;;;;;;;;;;;;;;;-5.35;100.00;97190.44;5087250;28;19940;-71
2024/01/09 08:55:41;;;;;;;;;;;;;;;-5.18;100.00;97179.09;5087737;28;19999;-74
2024/01/09 08:58:07;;;;;;;;;;;;;;;-5.00;100.00;97174.47;5087167;28;19937;-73
2024/01/09 09:00:32;;;;;;;;;;;;;;;-4.88;100.00;97176.22;5087097;28;19936;-73
2024/01/09 09:02:59;;;;;;;;;;;;;;;-4.75;100.00;97142.94;5087219;28;19950;-73
2024/01/09 09:05:25;;;;;;;;;;;;;;;-4.65;100.00;97140.56;5086999;28;19952;-73
2024/01/09 09:07:50;;;;;;;;;;;;;;;-4.61;100.00;97147.94;5086891;28;20299;-73
2024/01/09 09:10:17;;;;;;;;;;;;;;;-4.64;96.56;97106.38;5085935;28;20158;-86
2024/01/09 09:12:42;;;;;;;;;;;;;;;-4.58;100.00;97146.91;5087449;28;20261;-74
2024/01/09 09:15:09;;;;;;;;;;;;;;;-4.48;99.20;97112.06;5086616;28;19947;-86
2024/01/09 09:17:34;;;;;;;;;;;;;;;-4.39;100.00;97131.06;5087804;28;19942;-86
2024/01/09 09:20:00;;;;;;;;;;;;;;;-4.22;100.00;97143.53;5086616;28;19970;-87
2024/01/09 09:22:28;;;;;;;;;;;;;;;-4.12;92.21;97079.63;5087236;28;19935;-90
2024/01/09 09:24:55;;;;;;;;;;;;;;;-4.14;91.14;97073.81;5086994;28;19958;-86
2024/01/09 09:27:21;;;;;;;;;;;;;;;-3.73;100.00;97246.84;5085935;28;19936;-87
2024/01/09 09:29:47;;;;;;;;;;;;;;;-3.15;100.00;97122.06;5086690;28;20023;-70
2024/01/09 09:32:12;;;;;;;;;;;;;;;-3.03;99.82;97092.06;5087328;28;19942;-75
2024/01/09 09:34:41;;;;;;;;;;;;;;;-3.03;99.41;97093.81;5086445;28;19935;-75
2024/01/09 09:37:07;;;;;;;;;;;;;;;-3.21;93.14;97068.66;5086462;28;19936;-74
2024/01/09 09:39:34;;;;;;;;;;;;;;;-3.36;93.61;97072.34;5086152;28;19945;-74
2024/01/09 09:42:00;;;;;;;;;;;;;;;-3.58;91.66;97053.44;5086324;28;19943;-73
2024/01/09 09:44:26;;;;;;;;;;;;;;;-3.80;96.14;97086.72;5086820;28;19935;-73
2024/01/09 09:46:52;;;;;;;;;;;;;;;-3.75;95.87;97103.41;5086255;28;19949;-73
2024/01/09 09:49:24;;;;;;;;;;;;;;;-3.71;90.27;97045.06;5088059;28;19935;-68
2024/01/09 09:51:54;;;;;;;;;;;;;;;-3.67;99.34;97126.72;5086924;28;19947;-71
2024/01/09 09:54:22;;;;;;;;;;;;;;;-3.87;88.59;97048.72;5086061;28;19938;-71
2024/01/09 09:56:48;;;;;;;;;;;;;;;-3.94;92.44;97072.38;5085979;28;19963;-72
2024/01/09 09:59:14;;;;;;;;;;;;;;;-3.79;99.15;97122.50;5086099;28;20228;-72
2024/01/09 10:01:41;;;;;;;;;;;;;;;-3.52;98.85;97117.09;5086013;28;19940;-73
2024/01/09 10:04:24;;;;;;;;;;;;;;;-3.21;99.98;97124.25;5085931;28;19939;-70
2024/01/09 10:06:52;;;;;;;;;;;;;;;-3.01;85.94;97031.19;5069039;28;20209;-68
2024/01/09 10:09:19;;;;;;;;;;;;;;;-2.81;90.45;97052.75;5085694;28;20157;-70
2024/01/09 10:11:48;;;;;;;;;;;;;;;-2.68;93.31;97078.28;5085920;28;19944;-70
2024/01/09 10:14:13;;;;;;;;;;;;;;;-2.51;90.74;97048.72;5068899;28;19939;-70
2024/01/09 10:16:53;;;;;;;;;;;;;;;-2.30;95.50;97084.72;5085803;28;19976;-71
2024/01/09 10:19:22;;;;;;;;;;;;;;;-2.21;86.12;97030.03;5085797;28;19933;-70
2024/01/09 10:21:49;;;;;;;;;;;;;;;-2.28;92.06;97062.31;5084632;28;19937;-71
2024/01/09 10:24:16;;;;;;;;;;;;;;;-2.29;87.55;97028.09;5085354;28;19938;-68
2024/01/09 10:26:42;;;;;;;;;;;;;;;-2.29;90.28;97046.09;5086016;28;19947;-94
2024/01/09 10:29:08;;;;;;;;;;;;;;;-2.31;89.62;97041.97;5091516;28;19941;-94
2024/01/09 10:31:34;;;;;;;;;;;;;;;-2.31;87.56;97024.84;5090844;28;19951;-94
2024/01/09 10:34:00;;;;;;;;;;;;;;;-2.37;89.23;97037.34;5091124;28;19933;-93
2024/01/09 10:36:27;;;;;;;;;;;;;;;-2.33;90.80;97054.97;5090555;28;19948;-92
2024/01/09 10:39:01;;;;;;;;;;;;;;;-2.16;90.37;97050.22;5090733;28;20115;-92
2024/01/09 10:41:27;;;;;;;;;;;;;;;-2.21;87.61;97019.75;5089088;28;20208;-88
2024/01/09 10:43:53;;;;;;;;;;;;;;;-2.33;81.82;96995.88;5086797;28;19943;-71
2024/01/09 10:46:23;;;;;;;;;;;;;;;-2.45;90.25;97046.47;5084709;28;19948;-73
2024/01/09 10:48:50;;;;;;;;;;;;;;;-2.31;91.47;97058.22;5084855;28;19938;-73
2024/01/09 10:51:16;;;;;;;;;;;;;;;-2.06;90.98;97061.38;5085569;28;19935;-73
2024/01/09 10:53:44;;;;;;;;;;;;;;;-1.81;88.15;97037.06;5084972;28;20000;-73
2024/01/09 10:56:10;;;;;;;;;;;;;;;-1.61;90.59;97042.34;5085020;28;19945;-74
2024/01/09 10:58:36;;;;;;;;;;;;;;;-1.39;88.66;97024.16;5083832;28;20161;-73
2024/01/09 11:01:02;;;;;;;;;;;;;;;-1.23;86.93;97021.13;5083799;28;20220;-71
2024/01/09 11:03:29;;;;;;;;;;;;;;;-1.15;86.25;96998.13;5085275;28;19943;-67
2024/01/09 11:05:58;;;;;;;;;;;;;;;-1.28;89.21;97020.69;5085187;28;19951;-67
2024/01/09 11:08:25;;;;;;;;;;;;;;;-1.40;80.87;96960.81;5084643;28;19944;-67
2024/01/09 11:10:51;;;;;;;;;;;;;;;-1.45;92.21;97038.38;5084426;28;19983;-67
2024/01/09 11:13:18;;;;;;;;;;;;;;;-1.36;86.99;97003.34;5085155;28;19942;-68
2024/01/09 11:15:47;;;;;;;;;;;;;;;-1.26;83.21;96978.47;5085144;28;19936;-67
2024/01/09 11:18:17;;;;;;;;;;;;;;;-1.12;87.12;97010.72;5084707;28;19938;-67
2024/01/09 11:20:43;;;;;;;;;;;;;;;-1.15;84.98;97002.47;5084433;28;19933;-76
2024/01/09 11:23:10;;;;;;;;;;;;;;;-1.12;88.12;97010.72;5085140;28;19937;-73
2024/01/09 11:25:36;;;;;;;;;;;;;;;-1.13;79.58;96965.38;5084221;28;19958;-75
2024/01/09 11:28:02;;;;;;;;;;;;;;;-1.08;86.90;97001.81;5067307;28;19948;-73
2024/01/09 11:30:30;;;;;;;;;;;;;;;-1.02;83.56;96988.41;5084345;28;19951;-73
2024/01/09 11:32:56;;;;;;;;;;;;;;;-0.97;88.67;96989.78;5084197;28;20217;-74
2024/01/09 11:35:22;;;;;;;;;;;;;;;-0.96;84.07;96970.81;5084162;28;19940;-74
2024/01/09 11:37:48;;;;;;;;;;;;;;;-0.90;85.34;96985.75;5084185;28;19937;-69
2024/01/09 11:40:15;;;;;;;;;;;;;;;-0.93;85.02;96973.94;5084205;28;20108;-73
2024/01/09 11:42:45;;;;;;;;;;;;;;;-0.99;86.27;96996.81;5084129;28;19941;-71
2024/01/09 11:45:12;;;;;;;;;;;;;;;-1.02;79.59;96954.13;5083995;28;19958;-71
2024/01/09 11:47:38;;;;;;;;;;;;;;;-0.99;78.98;96951.28;5084043;28;19957;-71
2024/01/09 11:50:07;;;;;;;;;;;;;;;-0.99;85.09;96991.66;5084035;28;19949;-71
2024/01/09 11:52:34;;;;;;;;;;;;;;;-1.03;80.84;96955.06;5083975;28;19947;-71
2024/01/09 11:55:00;;;;;;;;;;;;;;;-1.12;83.22;96968.75;5083958;28;19937;-71
2024/01/09 11:57:26;;;;;;;;;;;;;;;-0.81;86.52;96997.81;5084071;28;19934;-73
2024/01/09 11:59:53;;;;;;;;;;;;;;;-0.90;72.31;96908.50;5083440;28;19937;-74
2024/01/09 12:02:19;;;;;;;;;;;;;;;-1.04;74.58;96936.25;5083908;28;19936;-75
2024/01/09 12:04:45;;;;;;;;;;;;;;;-1.02;81.66;96980.69;5083766;28;19939;-75
2024/01/09 12:07:12;;;;;;;;;;;;;;;-0.97;85.24;97036.94;5083812;28;19946;-73
2024/01/09 12:09:38;;;;;;;;;;;;;;;-0.92;73.06;96990.22;5083625;28;19964;-74
2024/01/09 12:12:10;;;;;;;;;;;;;;;-1.06;72.67;97017.94;5083764;28;20131;-74
2024/01/09 12:14:36;;;;;;;;;;;;;;;-1.12;73.11;97023.59;5084190;28;19944;-74
2024/01/09 12:17:24;;;;;;;;;;;;;;;-1.15;79.52;97057.34;5083612;28;19949;-72
2024/01/09 12:19:51;;;;;;;;;;;;;;;-1.34;75.40;97034.09;5083634;28;19936;-73
2024/01/09 12:22:18;;;;;;;;;;;;;;;-1.37;77.69;97054.91;5083643;28;19944;-73
2024/01/09 12:24:44;;;;;;;;;;;;;;;-1.44;80.01;97059.75;5084315;28;19933;-73
2024/01/09 12:27:10;;;;;;;;;;;;;;;-1.54;78.70;97059.69;5083625;28;19933;-72
2024/01/09 12:29:36;;;;;;;;;;;;;;;-1.71;72.29;97034.56;5083575;28;19962;-73
2024/01/09 12:32:03;;;;;;;;;;;;;;;-1.71;78.30;97060.28;5084146;28;19941;-69
2024/01/09 12:34:29;;;;;;;;;;;;;;;-1.60;80.98;97078.22;5083607;28;19951;-76
2024/01/09 12:36:56;;;;;;;;;;;;;;;-1.44;82.75;97078.59;5083514;28;19945;-74